Terminal Aerodrome Forecast
Issued by NWS Raleigh/Durham, NC

Home | Current Version | Previous Version | Text Only | Print | Product List | Glossary On
Versions: 1 2 3 4 5 6 7 8 9 10 11 12 13 14 15 16 17 18 19 20 21 22 23 24
000
FTUS42 KRAH 301120
TAFRDU
TAF
KRDU 301120Z 3012/3112 VRB04KT P6SM FEW012 BKN029 OVC060
     FM301800 12007KT P6SM OVC050
     FM310500 16010G15KT P6SM -RA OVC015
     FM310900 17014G20KT 4SM -RA OVC003 PROB30 3109/3112 4SM -TSRA
      BKN003CB=

USA.gov is the U.S. government's official web portal to all federal, state and local government web resources and services.